Terminal Aerodrome Forecast
Issued by NWS Melbourne, FL

Home | Current Version | Previous Version | Text Only | Print | Product List | Glossary On
Versions: 1 2 3 4 5 6 7 8 9 10 11 12 13 14 15 16 17 18 19
000
FTUS42 KMLB 162300
TAFVRB
TAF
KVRB 162333Z 1700/1724 27010KT P6SM VCSH SCT040 BKN080
      TEMPO 1700/1701 2SM TSRA BKN035CB OVC060
     FM170200 26004KT P6SM SCT080 OVC150
     FM171400 26009KT P6SM FEW020 SCT120 BKN250
     FM171900 28007KT P6SM VCTS SCT040CB BKN100=

USA.gov is the U.S. government's official web portal to all federal, state and local government web resources and services.